Skip to Main Content

Maryland Weather Station Data

Download Historical Weather Data

SEARCH:
Location Air RH Dwp Precip Type Intensity Visibility Wind Speed Direction Pavement Temperature Date/Time
I-270 AT I-370 67 64 55 None - - Calm N 70 - 73 5/26/2016 2:40:00 AM
I-270 AT MD-109 56 97 56 None - - Calm E 62 - 67 5/26/2016 2:40:00 AM
I-495 AT American Legion Bridge 58 100 58 None - - Calm NW 65 - 66 5/26/2016 2:40:00 AM
I-68 AT MD-219 64 64 52 None - - Calm S 66 - 70 5/26/2016 2:40:00 AM
I-68 AT Savage Mt 61 73 53 None - - Calm NW 63 - 64 5/26/2016 2:40:00 AM
I-68 AT Sideling Hill 69 58 53 None - - Calm NW 70 - 71 5/26/2016 2:40:00 AM
I-68 AT WV Line 56 93 54 None - - Calm W 65 - 66 5/26/2016 2:40:01 AM
I-695 AT I-83 58 87 54 None - - Calm NE 66 - 68 5/26/2016 2:40:00 AM
I-70 AT Fred-Wash Co. 66 64 54 None - - Calm SE 68 - 69 5/26/2016 2:40:00 AM
I-70 AT I-695 58 90 56 None - - Calm SW 66 - 72 5/26/2016 2:40:00 AM
I-70 AT I-81 62 84 57 None - - Calm N 68 - 68 5/26/2016 2:40:00 AM
I-70 AT MD-32 57 90 54 None - - Calm E 66 - 67 5/26/2016 2:40:00 AM
I-83 AT MD-137 59 87 55 None - - Calm NW - 5/26/2016 2:40:00 AM
I-95 AT Patuxent River 62 93 60 None - - Calm NE 66 - 68 5/26/2016 2:40:00 AM
I-95 AT Tydings Bridge 64 83 59 None - - Calm E 67 - 69 5/26/2016 2:40:00 AM
I-95/495 AT I-295 71 60 56 None - - Calm S 71 - 73 5/26/2016 2:40:00 AM
I-97 AT MD-100 63 76 56 None - - Calm W 67 - 70 5/26/2016 2:40:00 AM
I-97 AT MD-32 59 88 56 None - - 7 mph N 68 - 72 5/26/2016 2:40:01 AM
MD 231 at Patuxent River 59 97 59 None - - Calm SW 67 - 69 5/26/2016 2:40:01 AM
MD-135 AT Salt Dome 65 64 53 None - - Calm SW 69 - 69 5/26/2016 2:40:00 AM
MD-140 AT MD-97 60 85 56 None - - Calm S 70 - 70 5/26/2016 2:40:00 AM
MD-213 AT Sassafras River 62 100 62 None - - Calm N 67 - 67 5/26/2016 2:40:00 AM
MD-24 AT Rock St Park 56 100 56 None - - Calm N 63 - 63 5/26/2016 2:40:00 AM
MD-30 AT PA Line 69 54 52 None - - 4 mph S 70 - 70 5/26/2016 2:40:00 AM
MD-301 AT MD-305 64 75 57 None - - Calm S 65 - 68 5/26/2016 2:40:01 AM
MD-33 AT Knapps Narrows Drawbridge 67 81 61 None - - Calm S 71 - 71 5/26/2016 2:40:01 AM
MD-344 at MD-224 59 96 58 None - - Calm N 69 - 69 5/26/2016 2:40:04 AM
MD-4 AT Patuxent River 63 93 61 None - - - No Data Available 70 - 70 5/26/2016 2:40:00 AM
MD-404 AT Choptank River 62 84 57 None - - Calm SE 68 - 70 5/26/2016 2:40:01 AM
MD-43 AT MD-150 61 97 60 None - - Calm E 68 - 70 5/26/2016 2:40:00 AM
MD-51 AT Oldtown Salt Dome 57 97 56 None - - Calm E 71 - 71 5/26/2016 2:40:00 AM
US-1 AT Baltimore / Harford Co. Line 56 95 55 None - - Calm N 64 - 65 5/26/2016 2:40:00 AM
US-1 AT Conowingo Dam 60 91 58 None - - Calm NW 66 - 66 5/26/2016 2:40:00 AM
US-13 AT US-113 62 85 58 None - - Calm N 71 - 71 5/26/2016 2:40:00 AM
US-13 AT US-50 61 84 56 None - - Calm SE 68 - 72 5/26/2016 2:40:00 AM
US-15 AT MD-140 63 74 55 None - - Calm N 69 - 69 5/26/2016 2:40:00 AM
US-301 AT MD-5 62 88 58 None - - Calm N 69 - 71 5/26/2016 2:40:00 AM
US-301 AT Potomac 65 88 61 None - - Calm E 69 - 69 5/26/2016 2:40:00 AM
US-340 AT MD-180 57 93 55 None - - Calm N 64 - 70 5/26/2016 2:40:00 AM
US-50 AT Choptank 65 93 63 None - - Calm S 68 - 69 5/26/2016 2:40:00 AM
US-50 AT I-95 64 80 58 None - - Calm NE 70 - 107 5/26/2016 2:40:00 AM
US-50 AT MD-2 64 81 58 None - - Calm S 68 - 73 5/26/2016 2:40:00 AM
US-50 AT MD-331 66 79 59 None - - Calm S 68 - 70 5/26/2016 2:40:00 AM
US-50 AT OC Drawbridge 62 92 60 None - - Calm SW 68 - 68 5/26/2016 2:40:00 AM
US-50 AT Table Rock Rd 63 70 53 None - - Calm E 65 - 65 5/26/2016 2:40:00 AM
US-50 Kent Narrow Bridge 66 92 64 None - - 4 mph S 68 - 68 5/26/2016 2:40:00 AM
WPL Pier 31 66 90 63 None - - - S 64 - 64 5/26/2016 2:43:00 AM
Location Air RH Dwp Precip Type Intensity Visibility Wind Speed Direction Pavement Temperature Date/Time